Impacts TAF Board
For situational awareness. Not to be used for flight planning purposes.
IDs:

KALW - Walla Walla Rgnl, WA, US

Issued at 1120 UTC 15 Jul 2020
Updated at 1304 UTC 15 Jul 2020
Potential Impact None Slight Moderate High
Time1253Z 15/14Z 15/15Z 15/16Z 15/17Z 15/18Z 15/19Z 15/20Z 15/21Z 15/22Z 15/23Z 16/00Z 16/01Z 16/02Z>>
Type OBS PRVL PRVL PRVL PRVL PRVL PRVL PRVL PRVL PRVL PRVL PRVL PRVL PRVL
VIS 10 >6 >6 >6 >6 >6 >6 >6 >6 >6 >6 >6 >6 >6
CIG -- -- -- -- -- -- -- -- -- -- -- -- -- --
Cover CLR SKC SKC SKC SKC SKC SKC SKC SKC SKC SKC SKC SKC SKC
FltCat VFR VFR VFR VFR VFR VFR VFR VFR VFR VFR VFR VFR VFR VFR
WX -- -- -- -- -- -- -- -- -- -- -- -- -- --
WDir 90 120 230 230 230 230 230 230 230 230 230 230 230 190
WSpd 4 6 8 8 8 8 8 8 8 8 8 8 8 6
WGst -- -- -- -- -- -- -- -- -- -- -- -- -- --
Raw TAF
KALW 151120Z 1512/1612 12006KT P6SM SKC
  FM151500 23008KT P6SM SKC
  FM160200 19006KT P6SM SKC


Raw METAR
KALW 151253Z 09004KT 10SM CLR 14/02 A3003 RMK AO2 SLP163 T01440022
KALW 151153Z AUTO 10004KT 10SM CLR 15/02 A3003 RMK AO2 SLP161 T01500017 10206 20139 53002
KALW 151053Z AUTO 09005KT 10SM CLR 15/02 A3002 RMK AO2 SLP159 T01500017

METAR Board
Radar Display
Forecast Discussion
For situational awareness. Not to be used for flight planning purposes.